sensor_id;sensor_type;location;lat;lon;timestamp;temperature;humidity
33955;DHT22;20233;50.804;7.126;2022-11-30T00:01:29;9.00;99.90
33955;DHT22;20233;50.804;7.126;2022-11-30T00:03:56;9.00;99.90
33955;DHT22;20233;50.804;7.126;2022-11-30T00:06:23;9.00;99.90
33955;DHT22;20233;50.804;7.126;2022-11-30T00:08:55;9.10;99.90
33955;DHT22;20233;50.804;7.126;2022-11-30T00:11:22;9.10;99.90
33955;DHT22;20233;50.804;7.126;2022-11-30T00:13:49;9.00;99.90
33955;DHT22;20233;50.804;7.126;2022-11-30T00:16:14;9.00;99.90
33955;DHT22;20233;50.804;7.126;2022-11-30T00:18:40;9.00;99.90
33955;DHT22;20233;50.804;7.126;2022-11-30T00:21:07;9.00;99.90
33955;DHT22;20233;50.804;7.126;2022-11-30T00:23:36;9.00;99.90
33955;DHT22;20233;50.804;7.126;2022-11-30T00:26:04;9.00;99.90
33955;DHT22;20233;50.804;7.126;2022-11-30T00:28:31;9.10;99.90
33955;DHT22;20233;50.804;7.126;2022-11-30T00:30:58;9.00;99.90
33955;DHT22;20233;50.804;7.126;2022-11-30T00:33:23;9.00;99.90
33955;DHT22;20233;50.804;7.126;2022-11-30T00:36:00;9.10;99.90
33955;DHT22;20233;50.804;7.126;2022-11-30T00:38:26;9.00;99.90
33955;DHT22;20233;50.804;7.126;2022-11-30T00:40:52;9.00;99.90
33955;DHT22;20233;50.804;7.126;2022-11-30T00:43:18;9.00;99.90
33955;DHT22;20233;50.804;7.126;2022-11-30T00:45:43;9.10;99.90
33955;DHT22;20233;50.804;7.126;2022-11-30T00:48:09;9.00;99.90
33955;DHT22;20233;50.804;7.126;2022-11-30T00:50:34;8.90;99.90
33955;DHT22;20233;50.804;7.126;2022-11-30T00:53:00;8.90;99.90
33955;DHT22;20233;50.804;7.126;2022-11-30T00:55:26;9.00;99.90
33955;DHT22;20233;50.804;7.126;2022-11-30T00:57:52;8.60;99.90
33955;DHT22;20233;50.804;7.126;2022-11-30T01:00:17;8.30;99.90
33955;DHT22;20233;50.804;7.126;2022-11-30T01:02:43;8.20;99.90
33955;DHT22;20233;50.804;7.126;2022-11-30T01:05:09;8.30;99.90
33955;DHT22;20233;50.804;7.126;2022-11-30T01:07:35;8.30;99.90
33955;DHT22;20233;50.804;7.126;2022-11-30T01:10:01;8.30;99.90
33955;DHT22;20233;50.804;7.126;2022-11-30T01:12:27;8.30;99.90
33955;DHT22;20233;50.804;7.126;2022-11-30T01:14:52;8.30;99.90
33955;DHT22;20233;50.804;7.126;2022-11-30T01:17:18;8.00;99.90
33955;DHT22;20233;50.804;7.126;2022-11-30T01:19:43;8.10;99.90
33955;DHT22;20233;50.804;7.126;2022-11-30T01:22:09;8.10;99.90
33955;DHT22;20233;50.804;7.126;2022-11-30T01:24:34;7.90;99.90
33955;DHT22;20233;50.804;7.126;2022-11-30T01:27:01;8.10;99.90
33955;DHT22;20233;50.804;7.126;2022-11-30T01:29:26;7.90;99.90
33955;DHT22;20233;50.804;7.126;2022-11-30T01:31:52;7.80;99.90
33955;DHT22;20233;50.804;7.126;2022-11-30T01:34:19;7.70;99.90
33955;DHT22;20233;50.804;7.126;2022-11-30T01:36:45;7.50;99.90
33955;DHT22;20233;50.804;7.126;2022-11-30T01:39:13;7.40;99.90
33955;DHT22;20233;50.804;7.126;2022-11-30T01:41:38;7.30;99.90
33955;DHT22;20233;50.804;7.126;2022-11-30T01:46:48;7.40;99.90
33955;DHT22;20233;50.804;7.126;2022-11-30T01:49:29;7.40;99.90
33955;DHT22;20233;50.804;7.126;2022-11-30T01:52:14;7.40;99.90
33955;DHT22;20233;50.804;7.126;2022-11-30T01:55:07;7.30;99.90
33955;DHT22;20233;50.804;7.126;2022-11-30T01:57:44;7.20;99.90
33955;DHT22;20233;50.804;7.126;2022-11-30T02:00:13;7.30;99.90
33955;DHT22;20233;50.804;7.126;2022-11-30T02:02:42;7.40;99.90
33955;DHT22;20233;50.804;7.126;2022-11-30T02:05:10;7.40;99.90
33955;DHT22;20233;50.804;7.126;2022-11-30T02:07:36;7.40;99.90
33955;DHT22;20233;50.804;7.126;2022-11-30T02:10:02;7.40;99.90
33955;DHT22;20233;50.804;7.126;2022-11-30T02:12:52;7.30;99.90
33955;DHT22;20233;50.804;7.126;2022-11-30T02:15:27;7.10;99.90
33955;DHT22;20233;50.804;7.126;2022-11-30T02:18:11;7.20;99.90
33955;DHT22;20233;50.804;7.126;2022-11-30T02:23:31;7.40;99.90
33955;DHT22;20233;50.804;7.126;2022-11-30T02:29:01;7.50;99.90
33955;DHT22;20233;50.804;7.126;2022-11-30T02:31:34;7.50;99.90
33955;DHT22;20233;50.804;7.126;2022-11-30T02:34:04;7.40;99.90
33955;DHT22;20233;50.804;7.126;2022-11-30T02:36:31;7.40;99.90
33955;DHT22;20233;50.804;7.126;2022-11-30T02:38:57;7.40;99.90
33955;DHT22;20233;50.804;7.126;2022-11-30T02:41:22;7.50;99.90
33955;DHT22;20233;50.804;7.126;2022-11-30T02:43:49;7.70;99.90
33955;DHT22;20233;50.804;7.126;2022-11-30T02:46:30;7.70;99.90
33955;DHT22;20233;50.804;7.126;2022-11-30T02:49:10;7.50;99.90
33955;DHT22;20233;50.804;7.126;2022-11-30T02:51:39;7.30;99.90
33955;DHT22;20233;50.804;7.126;2022-11-30T02:54:06;7.30;99.90
33955;DHT22;20233;50.804;7.126;2022-11-30T02:56:32;7.50;99.90
33955;DHT22;20233;50.804;7.126;2022-11-30T02:58:58;7.60;99.90
33955;DHT22;20233;50.804;7.126;2022-11-30T03:01:24;7.70;99.90
33955;DHT22;20233;50.804;7.126;2022-11-30T03:03:50;7.90;99.90
33955;DHT22;20233;50.804;7.126;2022-11-30T03:06:15;7.80;99.90
33955;DHT22;20233;50.804;7.126;2022-11-30T03:08:41;7.80;99.90
33955;DHT22;20233;50.804;7.126;2022-11-30T03:11:06;7.90;99.90
33955;DHT22;20233;50.804;7.126;2022-11-30T03:13:33;8.00;99.90
33955;DHT22;20233;50.804;7.126;2022-11-30T03:16:10;8.00;99.90
33955;DHT22;20233;50.804;7.126;2022-11-30T03:18:36;8.20;99.90
33955;DHT22;20233;50.804;7.126;2022-11-30T03:21:06;8.30;99.90
33955;DHT22;20233;50.804;7.126;2022-11-30T03:23:32;8.30;99.90
33955;DHT22;20233;50.804;7.126;2022-11-30T03:26:00;8.30;99.90
33955;DHT22;20233;50.804;7.126;2022-11-30T03:28:25;8.10;99.90
33955;DHT22;20233;50.804;7.126;2022-11-30T03:30:51;8.30;99.90
33955;DHT22;20233;50.804;7.126;2022-11-30T03:33:16;8.10;99.90
33955;DHT22;20233;50.804;7.126;2022-11-30T03:35:43;8.20;99.90
33955;DHT22;20233;50.804;7.126;2022-11-30T03:38:08;8.20;99.90
33955;DHT22;20233;50.804;7.126;2022-11-30T03:40:35;8.10;99.90
33955;DHT22;20233;50.804;7.126;2022-11-30T03:43:01;8.30;99.90
33955;DHT22;20233;50.804;7.126;2022-11-30T03:45:27;8.20;99.90
33955;DHT22;20233;50.804;7.126;2022-11-30T03:47:52;8.40;99.90
33955;DHT22;20233;50.804;7.126;2022-11-30T03:50:18;8.40;99.90
33955;DHT22;20233;50.804;7.126;2022-11-30T03:52:43;8.40;99.90
33955;DHT22;20233;50.804;7.126;2022-11-30T03:55:09;8.40;99.90
33955;DHT22;20233;50.804;7.126;2022-11-30T03:57:34;8.50;99.90
33955;DHT22;20233;50.804;7.126;2022-11-30T04:00:00;8.60;99.90
33955;DHT22;20233;50.804;7.126;2022-11-30T04:02:26;8.50;99.90
33955;DHT22;20233;50.804;7.126;2022-11-30T04:04:51;8.10;99.90
33955;DHT22;20233;50.804;7.126;2022-11-30T04:07:17;8.40;99.90
33955;DHT22;20233;50.804;7.126;2022-11-30T04:09:42;8.50;99.90
33955;DHT22;20233;50.804;7.126;2022-11-30T04:12:08;8.60;99.90
33955;DHT22;20233;50.804;7.126;2022-11-30T04:14:34;8.50;99.90
33955;DHT22;20233;50.804;7.126;2022-11-30T04:16:59;8.60;99.90
33955;DHT22;20233;50.804;7.126;2022-11-30T04:19:24;8.40;99.90
33955;DHT22;20233;50.804;7.126;2022-11-30T04:21:50;8.40;99.90
33955;DHT22;20233;50.804;7.126;2022-11-30T04:24:16;8.40;99.90
33955;DHT22;20233;50.804;7.126;2022-11-30T04:26:41;8.40;99.90
33955;DHT22;20233;50.804;7.126;2022-11-30T04:29:07;8.30;99.90
33955;DHT22;20233;50.804;7.126;2022-11-30T04:31:32;8.40;99.90
33955;DHT22;20233;50.804;7.126;2022-11-30T04:33:58;8.20;99.90
33955;DHT22;20233;50.804;7.126;2022-11-30T04:36:24;8.30;99.90
33955;DHT22;20233;50.804;7.126;2022-11-30T04:38:49;8.00;99.90
33955;DHT22;20233;50.804;7.126;2022-11-30T04:41:15;8.00;99.90
33955;DHT22;20233;50.804;7.126;2022-11-30T04:43:40;8.10;99.90
33955;DHT22;20233;50.804;7.126;2022-11-30T04:46:06;8.10;99.90
33955;DHT22;20233;50.804;7.126;2022-11-30T04:48:32;8.10;99.90
33955;DHT22;20233;50.804;7.126;2022-11-30T04:51:02;8.10;99.90
33955;DHT22;20233;50.804;7.126;2022-11-30T04:53:28;8.00;99.90
33955;DHT22;20233;50.804;7.126;2022-11-30T04:55:54;8.00;99.90
33955;DHT22;20233;50.804;7.126;2022-11-30T04:58:19;7.90;99.90
33955;DHT22;20233;50.804;7.126;2022-11-30T05:00:45;8.00;99.90
33955;DHT22;20233;50.804;7.126;2022-11-30T05:03:10;8.00;99.90
33955;DHT22;20233;50.804;7.126;2022-11-30T05:05:35;8.20;99.90
33955;DHT22;20233;50.804;7.126;2022-11-30T05:08:01;8.20;99.90
33955;DHT22;20233;50.804;7.126;2022-11-30T05:10:27;8.20;99.90
33955;DHT22;20233;50.804;7.126;2022-11-30T05:12:55;8.30;99.90
33955;DHT22;20233;50.804;7.126;2022-11-30T05:15:20;8.10;99.90
33955;DHT22;20233;50.804;7.126;2022-11-30T05:17:46;8.30;99.90
33955;DHT22;20233;50.804;7.126;2022-11-30T05:20:12;8.30;99.90
33955;DHT22;20233;50.804;7.126;2022-11-30T05:22:38;8.30;99.90
33955;DHT22;20233;50.804;7.126;2022-11-30T05:25:03;8.30;99.90
33955;DHT22;20233;50.804;7.126;2022-11-30T05:27:29;8.20;99.90
33955;DHT22;20233;50.804;7.126;2022-11-30T05:29:55;8.10;99.90
33955;DHT22;20233;50.804;7.126;2022-11-30T05:32:20;8.30;99.90
33955;DHT22;20233;50.804;7.126;2022-11-30T05:34:46;8.20;99.90
33955;DHT22;20233;50.804;7.126;2022-11-30T05:37:11;8.30;99.90
33955;DHT22;20233;50.804;7.126;2022-11-30T05:39:37;8.40;99.90
33955;DHT22;20233;50.804;7.126;2022-11-30T05:42:02;8.50;99.90
33955;DHT22;20233;50.804;7.126;2022-11-30T05:44:28;8.50;99.90
33955;DHT22;20233;50.804;7.126;2022-11-30T05:46:54;8.30;99.90
33955;DHT22;20233;50.804;7.126;2022-11-30T05:49:19;8.20;99.90
33955;DHT22;20233;50.804;7.126;2022-11-30T05:51:45;7.90;99.90
33955;DHT22;20233;50.804;7.126;2022-11-30T05:54:10;8.00;99.90
33955;DHT22;20233;50.804;7.126;2022-11-30T05:56:37;8.00;99.90
33955;DHT22;20233;50.804;7.126;2022-11-30T05:59:02;8.00;99.90
33955;DHT22;20233;50.804;7.126;2022-11-30T06:01:28;7.90;99.90
33955;DHT22;20233;50.804;7.126;2022-11-30T06:03:54;7.80;99.90
33955;DHT22;20233;50.804;7.126;2022-11-30T06:06:20;7.70;99.90
33955;DHT22;20233;50.804;7.126;2022-11-30T06:08:48;7.60;99.90
33955;DHT22;20233;50.804;7.126;2022-11-30T06:11:14;7.70;99.90
33955;DHT22;20233;50.804;7.126;2022-11-30T06:13:40;7.70;99.90
33955;DHT22;20233;50.804;7.126;2022-11-30T06:16:07;7.60;99.90
33955;DHT22;20233;50.804;7.126;2022-11-30T06:18:33;7.60;99.90
33955;DHT22;20233;50.804;7.126;2022-11-30T06:21:00;7.70;99.90
33955;DHT22;20233;50.804;7.126;2022-11-30T06:23:26;7.60;99.90
33955;DHT22;20233;50.804;7.126;2022-11-30T06:25:52;7.70;99.90
33955;DHT22;20233;50.804;7.126;2022-11-30T06:28:17;7.70;99.90
33955;DHT22;20233;50.804;7.126;2022-11-30T06:30:43;7.80;99.90
33955;DHT22;20233;50.804;7.126;2022-11-30T06:33:08;7.80;99.90
33955;DHT22;20233;50.804;7.126;2022-11-30T06:35:34;7.80;99.90
33955;DHT22;20233;50.804;7.126;2022-11-30T06:38:00;7.90;99.90
33955;DHT22;20233;50.804;7.126;2022-11-30T06:40:25;7.80;99.90
33955;DHT22;20233;50.804;7.126;2022-11-30T06:42:53;7.80;99.90
33955;DHT22;20233;50.804;7.126;2022-11-30T06:45:18;8.00;99.90
33955;DHT22;20233;50.804;7.126;2022-11-30T06:47:44;8.10;99.90
33955;DHT22;20233;50.804;7.126;2022-11-30T06:50:11;8.20;99.90
33955;DHT22;20233;50.804;7.126;2022-11-30T06:52:37;8.30;99.90
33955;DHT22;20233;50.804;7.126;2022-11-30T06:55:02;8.30;99.90
33955;DHT22;20233;50.804;7.126;2022-11-30T06:57:29;8.20;99.90
33955;DHT22;20233;50.804;7.126;2022-11-30T06:59:55;8.10;99.90
33955;DHT22;20233;50.804;7.126;2022-11-30T07:02:20;8.30;99.90
33955;DHT22;20233;50.804;7.126;2022-11-30T07:04:46;8.50;99.90
33955;DHT22;20233;50.804;7.126;2022-11-30T07:07:12;8.60;99.90
33955;DHT22;20233;50.804;7.126;2022-11-30T07:09:37;8.70;99.90
33955;DHT22;20233;50.804;7.126;2022-11-30T07:12:03;8.30;99.90
33955;DHT22;20233;50.804;7.126;2022-11-30T07:14:29;8.40;99.90
33955;DHT22;20233;50.804;7.126;2022-11-30T07:16:55;8.40;99.90
33955;DHT22;20233;50.804;7.126;2022-11-30T07:19:21;8.50;99.90
33955;DHT22;20233;50.804;7.126;2022-11-30T07:21:47;8.30;99.90
33955;DHT22;20233;50.804;7.126;2022-11-30T07:24:12;8.30;99.90
33955;DHT22;20233;50.804;7.126;2022-11-30T07:26:58;8.40;99.90
33955;DHT22;20233;50.804;7.126;2022-11-30T07:29:24;8.40;99.90
33955;DHT22;20233;50.804;7.126;2022-11-30T07:31:51;8.20;99.90
33955;DHT22;20233;50.804;7.126;2022-11-30T07:34:17;8.10;99.90
33955;DHT22;20233;50.804;7.126;2022-11-30T07:36:43;8.10;99.90
33955;DHT22;20233;50.804;7.126;2022-11-30T07:39:09;7.80;99.90
33955;DHT22;20233;50.804;7.126;2022-11-30T07:41:36;7.60;99.90
33955;DHT22;20233;50.804;7.126;2022-11-30T07:44:06;7.50;99.90
33955;DHT22;20233;50.804;7.126;2022-11-30T07:46:32;7.40;99.90
33955;DHT22;20233;50.804;7.126;2022-11-30T07:49:01;7.50;99.90
33955;DHT22;20233;50.804;7.126;2022-11-30T07:51:27;7.40;99.90
33955;DHT22;20233;50.804;7.126;2022-11-30T07:53:55;7.30;99.90
33955;DHT22;20233;50.804;7.126;2022-11-30T07:56:22;7.30;99.90
33955;DHT22;20233;50.804;7.126;2022-11-30T07:58:49;7.40;99.90
33955;DHT22;20233;50.804;7.126;2022-11-30T08:01:20;7.50;99.90
33955;DHT22;20233;50.804;7.126;2022-11-30T08:03:47;7.40;99.90
33955;DHT22;20233;50.804;7.126;2022-11-30T08:06:24;7.50;99.90
33955;DHT22;20233;50.804;7.126;2022-11-30T08:08:53;7.50;99.90
33955;DHT22;20233;50.804;7.126;2022-11-30T08:11:20;7.40;99.90
33955;DHT22;20233;50.804;7.126;2022-11-30T08:13:46;7.40;99.90
33955;DHT22;20233;50.804;7.126;2022-11-30T08:16:15;7.50;99.90
33955;DHT22;20233;50.804;7.126;2022-11-30T08:18:41;7.50;99.90
33955;DHT22;20233;50.804;7.126;2022-11-30T08:21:09;7.60;99.90
33955;DHT22;20233;50.804;7.126;2022-11-30T08:23:55;7.70;99.90
33955;DHT22;20233;50.804;7.126;2022-11-30T08:26:27;7.60;99.90
33955;DHT22;20233;50.804;7.126;2022-11-30T08:28:54;7.40;99.90
33955;DHT22;20233;50.804;7.126;2022-11-30T08:31:28;7.30;99.90
33955;DHT22;20233;50.804;7.126;2022-11-30T08:33:56;7.30;99.90
33955;DHT22;20233;50.804;7.126;2022-11-30T08:36:23;7.20;99.90
33955;DHT22;20233;50.804;7.126;2022-11-30T08:38:49;7.30;99.90
33955;DHT22;20233;50.804;7.126;2022-11-30T08:41:18;7.20;99.90
33955;DHT22;20233;50.804;7.126;2022-11-30T08:43:44;7.30;99.90
33955;DHT22;20233;50.804;7.126;2022-11-30T08:46:12;7.30;99.90
33955;DHT22;20233;50.804;7.126;2022-11-30T08:48:38;7.30;99.90
33955;DHT22;20233;50.804;7.126;2022-11-30T08:51:06;7.50;99.90
33955;DHT22;20233;50.804;7.126;2022-11-30T08:53:34;7.40;99.90
33955;DHT22;20233;50.804;7.126;2022-11-30T08:56:05;7.60;99.90
33955;DHT22;20233;50.804;7.126;2022-11-30T08:58:34;7.60;99.90
33955;DHT22;20233;50.804;7.126;2022-11-30T09:01:09;7.60;99.90
33955;DHT22;20233;50.804;7.126;2022-11-30T09:03:35;7.60;99.90
33955;DHT22;20233;50.804;7.126;2022-11-30T09:06:06;7.50;99.90
33955;DHT22;20233;50.804;7.126;2022-11-30T09:08:33;7.60;99.90
33955;DHT22;20233;50.804;7.126;2022-11-30T09:11:13;7.30;99.90
33955;DHT22;20233;50.804;7.126;2022-11-30T09:13:40;7.30;99.90
33955;DHT22;20233;50.804;7.126;2022-11-30T09:16:06;7.30;99.90
33955;DHT22;20233;50.804;7.126;2022-11-30T09:18:32;7.30;99.90
33955;DHT22;20233;50.804;7.126;2022-11-30T09:20:59;7.40;99.90
33955;DHT22;20233;50.804;7.126;2022-11-30T09:23:25;7.20;99.90
33955;DHT22;20233;50.804;7.126;2022-11-30T09:25:59;7.30;99.90
33955;DHT22;20233;50.804;7.126;2022-11-30T09:28:25;7.20;99.90
33955;DHT22;20233;50.804;7.126;2022-11-30T09:30:51;7.30;99.90
33955;DHT22;20233;50.804;7.126;2022-11-30T09:33:17;7.30;99.90
33955;DHT22;20233;50.804;7.126;2022-11-30T09:35:43;7.30;99.90
33955;DHT22;20233;50.804;7.126;2022-11-30T09:38:08;7.10;99.90
33955;DHT22;20233;50.804;7.126;2022-11-30T09:40:35;7.30;99.90
33955;DHT22;20233;50.804;7.126;2022-11-30T09:45:34;7.40;99.90
33955;DHT22;20233;50.804;7.126;2022-11-30T09:51:03;7.40;99.90
33955;DHT22;20233;50.804;7.126;2022-11-30T09:53:41;7.20;99.90
33955;DHT22;20233;50.804;7.126;2022-11-30T09:56:27;7.30;99.90
33955;DHT22;20233;50.804;7.126;2022-11-30T09:59:03;7.20;99.90
33955;DHT22;20233;50.804;7.126;2022-11-30T10:01:31;7.30;99.90
33955;DHT22;20233;50.804;7.126;2022-11-30T10:03:59;7.50;99.90
33955;DHT22;20233;50.804;7.126;2022-11-30T10:06:44;7.50;99.90
33955;DHT22;20233;50.804;7.126;2022-11-30T10:09:28;7.50;99.90
33955;DHT22;20233;50.804;7.126;2022-11-30T10:12:04;7.40;99.90
33955;DHT22;20233;50.804;7.126;2022-11-30T10:17:32;7.40;99.90
33955;DHT22;20233;50.804;7.126;2022-11-30T10:20:24;7.50;99.90
33955;DHT22;20233;50.804;7.126;2022-11-30T10:23:05;7.50;99.90
33955;DHT22;20233;50.804;7.126;2022-11-30T10:25:56;7.50;99.90
33955;DHT22;20233;50.804;7.126;2022-11-30T10:31:11;7.40;99.90
33955;DHT22;20233;50.804;7.126;2022-11-30T10:33:44;7.50;99.90
33955;DHT22;20233;50.804;7.126;2022-11-30T10:36:28;7.50;99.90
33955;DHT22;20233;50.804;7.126;2022-11-30T10:39:00;7.70;99.90
33955;DHT22;20233;50.804;7.126;2022-11-30T10:44:16;7.50;99.90
33955;DHT22;20233;50.804;7.126;2022-11-30T10:46:52;7.50;99.90
33955;DHT22;20233;50.804;7.126;2022-11-30T10:49:18;7.40;99.90
33955;DHT22;20233;50.804;7.126;2022-11-30T10:51:51;7.50;99.90
33955;DHT22;20233;50.804;7.126;2022-11-30T10:54:20;7.40;99.90
33955;DHT22;20233;50.804;7.126;2022-11-30T10:56:47;7.50;99.90
33955;DHT22;20233;50.804;7.126;2022-11-30T10:59:38;7.40;99.90
33955;DHT22;20233;50.804;7.126;2022-11-30T11:02:31;7.60;99.90
33955;DHT22;20233;50.804;7.126;2022-11-30T11:05:22;7.50;99.90
33955;DHT22;20233;50.804;7.126;2022-11-30T11:07:51;7.70;99.90
33955;DHT22;20233;50.804;7.126;2022-11-30T11:13:20;7.70;99.90
33955;DHT22;20233;50.804;7.126;2022-11-30T11:16:00;7.70;99.90
33955;DHT22;20233;50.804;7.126;2022-11-30T11:18:28;7.80;99.90
33955;DHT22;20233;50.804;7.126;2022-11-30T11:23:36;7.70;99.90
33955;DHT22;20233;50.804;7.126;2022-11-30T11:26:03;7.70;99.90
33955;DHT22;20233;50.804;7.126;2022-11-30T11:28:30;7.60;99.90
33955;DHT22;20233;50.804;7.126;2022-11-30T11:30:56;7.50;99.90
33955;DHT22;20233;50.804;7.126;2022-11-30T11:33:26;7.40;99.90
33955;DHT22;20233;50.804;7.126;2022-11-30T11:38:46;7.30;99.90
33955;DHT22;20233;50.804;7.126;2022-11-30T11:46:51;7.40;99.90
33955;DHT22;20233;50.804;7.126;2022-11-30T11:49:22;7.50;99.90
33955;DHT22;20233;50.804;7.126;2022-11-30T11:52:19;7.70;99.90
33955;DHT22;20233;50.804;7.126;2022-11-30T11:54:53;7.70;99.90
33955;DHT22;20233;50.804;7.126;2022-11-30T11:57:33;7.70;99.90
33955;DHT22;20233;50.804;7.126;2022-11-30T12:00:06;7.70;99.90
33955;DHT22;20233;50.804;7.126;2022-11-30T12:05:39;7.70;99.90
33955;DHT22;20233;50.804;7.126;2022-11-30T12:11:21;7.90;99.90
33955;DHT22;20233;50.804;7.126;2022-11-30T12:13:48;7.70;99.90
33955;DHT22;20233;50.804;7.126;2022-11-30T12:19:20;7.60;99.90
33955;DHT22;20233;50.804;7.126;2022-11-30T12:27:46;7.70;99.90
33955;DHT22;20233;50.804;7.126;2022-11-30T12:30:24;7.50;99.90
33955;DHT22;20233;50.804;7.126;2022-11-30T12:36:26;7.70;99.90
33955;DHT22;20233;50.804;7.126;2022-11-30T12:38:59;7.60;99.90
33955;DHT22;20233;50.804;7.126;2022-11-30T12:47:10;7.80;99.90
33955;DHT22;20233;50.804;7.126;2022-11-30T12:55:30;7.40;99.90
33955;DHT22;20233;50.804;7.126;2022-11-30T13:06:14;7.50;99.90
33955;DHT22;20233;50.804;7.126;2022-11-30T13:11:35;7.50;99.90
33955;DHT22;20233;50.804;7.126;2022-11-30T13:14:10;7.60;99.90
33955;DHT22;20233;50.804;7.126;2022-11-30T13:16:38;7.50;99.90
33955;DHT22;20233;50.804;7.126;2022-11-30T13:21:54;7.50;99.90
33955;DHT22;20233;50.804;7.126;2022-11-30T13:24:28;7.60;99.90
33955;DHT22;20233;50.804;7.126;2022-11-30T13:30:18;7.60;99.90
33955;DHT22;20233;50.804;7.126;2022-11-30T13:32:45;7.60;99.90
33955;DHT22;20233;50.804;7.126;2022-11-30T13:38:03;7.40;99.90
33955;DHT22;20233;50.804;7.126;2022-11-30T13:40:30;7.30;99.90
33955;DHT22;20233;50.804;7.126;2022-11-30T13:42:56;7.50;99.90
33955;DHT22;20233;50.804;7.126;2022-11-30T13:45:33;7.30;99.90
33955;DHT22;20233;50.804;7.126;2022-11-30T13:48:31;7.40;99.90
33955;DHT22;20233;50.804;7.126;2022-11-30T13:50:58;7.30;99.90
33955;DHT22;20233;50.804;7.126;2022-11-30T13:53:31;7.30;99.90
33955;DHT22;20233;50.804;7.126;2022-11-30T14:01:52;7.50;99.90
33955;DHT22;20233;50.804;7.126;2022-11-30T14:06:54;7.40;99.90
33955;DHT22;20233;50.804;7.126;2022-11-30T14:15:00;7.50;99.90
33955;DHT22;20233;50.804;7.126;2022-11-30T14:17:34;7.60;99.90
33955;DHT22;20233;50.804;7.126;2022-11-30T14:20:16;7.50;99.90
33955;DHT22;20233;50.804;7.126;2022-11-30T14:22:47;7.60;99.90
33955;DHT22;20233;50.804;7.126;2022-11-30T14:25:14;7.60;99.90
33955;DHT22;20233;50.804;7.126;2022-11-30T14:27:42;7.60;99.90
33955;DHT22;20233;50.804;7.126;2022-11-30T14:30:21;7.70;99.90
33955;DHT22;20233;50.804;7.126;2022-11-30T14:32:56;7.80;99.90
33955;DHT22;20233;50.804;7.126;2022-11-30T14:35:28;7.60;99.90
33955;DHT22;20233;50.804;7.126;2022-11-30T14:37:56;7.70;99.90
33955;DHT22;20233;50.804;7.126;2022-11-30T14:40:25;7.70;99.90
33955;DHT22;20233;50.804;7.126;2022-11-30T14:42:55;7.70;99.90
33955;DHT22;20233;50.804;7.126;2022-11-30T14:45:25;7.70;99.90
33955;DHT22;20233;50.804;7.126;2022-11-30T14:48:06;7.70;99.90
33955;DHT22;20233;50.804;7.126;2022-11-30T14:50:34;7.80;99.90
33955;DHT22;20233;50.804;7.126;2022-11-30T14:55:55;7.70;99.90
33955;DHT22;20233;50.804;7.126;2022-11-30T14:58:34;7.80;99.90
33955;DHT22;20233;50.804;7.126;2022-11-30T15:01:17;7.60;99.90
33955;DHT22;20233;50.804;7.126;2022-11-30T15:03:45;7.60;99.90
33955;DHT22;20233;50.804;7.126;2022-11-30T15:06:17;7.50;99.90
33955;DHT22;20233;50.804;7.126;2022-11-30T15:08:48;7.60;99.90
33955;DHT22;20233;50.804;7.126;2022-11-30T15:11:16;7.40;99.90
33955;DHT22;20233;50.804;7.126;2022-11-30T15:13:47;7.40;99.90
33955;DHT22;20233;50.804;7.126;2022-11-30T15:18:51;7.40;99.90
33955;DHT22;20233;50.804;7.126;2022-11-30T15:21:26;7.40;99.90
33955;DHT22;20233;50.804;7.126;2022-11-30T15:23:57;7.40;99.90
33955;DHT22;20233;50.804;7.126;2022-11-30T15:26:35;7.40;99.90
33955;DHT22;20233;50.804;7.126;2022-11-30T15:29:37;7.30;99.90
33955;DHT22;20233;50.804;7.126;2022-11-30T15:32:13;7.40;99.90
33955;DHT22;20233;50.804;7.126;2022-11-30T15:34:49;7.40;99.90
33955;DHT22;20233;50.804;7.126;2022-11-30T15:37:17;7.50;99.90
33955;DHT22;20233;50.804;7.126;2022-11-30T15:39:51;7.50;99.90
33955;DHT22;20233;50.804;7.126;2022-11-30T15:42:28;7.40;99.90
33955;DHT22;20233;50.804;7.126;2022-11-30T15:45:49;7.40;99.90
33955;DHT22;20233;50.804;7.126;2022-11-30T15:50:56;7.40;99.90
33955;DHT22;20233;50.804;7.126;2022-11-30T15:53:28;7.40;99.90
33955;DHT22;20233;50.804;7.126;2022-11-30T15:55:57;7.40;99.90
33955;DHT22;20233;50.804;7.126;2022-11-30T15:58:42;7.50;99.90
33955;DHT22;20233;50.804;7.126;2022-11-30T16:01:23;7.60;99.90
33955;DHT22;20233;50.804;7.126;2022-11-30T16:04:04;7.60;99.90
33955;DHT22;20233;50.804;7.126;2022-11-30T16:06:36;7.60;99.90
33955;DHT22;20233;50.804;7.126;2022-11-30T16:09:20;7.50;99.90
33955;DHT22;20233;50.804;7.126;2022-11-30T16:11:52;7.50;99.90
33955;DHT22;20233;50.804;7.126;2022-11-30T16:14:18;7.60;99.90
33955;DHT22;20233;50.804;7.126;2022-11-30T16:16:44;7.60;99.90
33955;DHT22;20233;50.804;7.126;2022-11-30T16:19:11;7.50;99.90
33955;DHT22;20233;50.804;7.126;2022-11-30T16:21:37;7.50;99.90
33955;DHT22;20233;50.804;7.126;2022-11-30T16:24:04;7.40;99.90
33955;DHT22;20233;50.804;7.126;2022-11-30T16:26:30;7.30;99.90
33955;DHT22;20233;50.804;7.126;2022-11-30T16:28:56;7.40;99.90
33955;DHT22;20233;50.804;7.126;2022-11-30T16:31:23;7.30;99.90
33955;DHT22;20233;50.804;7.126;2022-11-30T16:33:49;7.30;99.90
33955;DHT22;20233;50.804;7.126;2022-11-30T16:36:17;7.30;99.90
33955;DHT22;20233;50.804;7.126;2022-11-30T16:38:51;7.20;99.90
33955;DHT22;20233;50.804;7.126;2022-11-30T16:41:25;7.20;99.90
33955;DHT22;20233;50.804;7.126;2022-11-30T16:43:53;7.20;99.90
33955;DHT22;20233;50.804;7.126;2022-11-30T16:46:23;7.10;99.90
33955;DHT22;20233;50.804;7.126;2022-11-30T16:48:49;7.20;99.90
33955;DHT22;20233;50.804;7.126;2022-11-30T16:51:24;7.10;99.90
33955;DHT22;20233;50.804;7.126;2022-11-30T16:53:51;7.10;99.90
33955;DHT22;20233;50.804;7.126;2022-11-30T16:56:17;7.20;99.90
33955;DHT22;20233;50.804;7.126;2022-11-30T16:58:43;7.20;99.90
33955;DHT22;20233;50.804;7.126;2022-11-30T17:01:16;7.20;99.90
33955;DHT22;20233;50.804;7.126;2022-11-30T17:03:45;7.20;99.90
33955;DHT22;20233;50.804;7.126;2022-11-30T17:06:19;7.10;99.90
33955;DHT22;20233;50.804;7.126;2022-11-30T17:08:46;7.20;99.90
33955;DHT22;20233;50.804;7.126;2022-11-30T17:11:28;7.20;99.90
33955;DHT22;20233;50.804;7.126;2022-11-30T17:13:54;7.10;99.90
33955;DHT22;20233;50.804;7.126;2022-11-30T17:16:20;7.30;99.90
33955;DHT22;20233;50.804;7.126;2022-11-30T17:18:46;7.20;99.90
33955;DHT22;20233;50.804;7.126;2022-11-30T17:21:16;7.30;99.90
33955;DHT22;20233;50.804;7.126;2022-11-30T17:23:43;7.30;99.90
33955;DHT22;20233;50.804;7.126;2022-11-30T17:26:10;7.30;99.90
33955;DHT22;20233;50.804;7.126;2022-11-30T17:28:36;7.30;99.90
33955;DHT22;20233;50.804;7.126;2022-11-30T17:31:02;7.30;99.90
33955;DHT22;20233;50.804;7.126;2022-11-30T17:33:32;7.30;99.90
33955;DHT22;20233;50.804;7.126;2022-11-30T17:35:58;7.30;99.90
33955;DHT22;20233;50.804;7.126;2022-11-30T17:38:27;7.20;99.90
33955;DHT22;20233;50.804;7.126;2022-11-30T17:40:53;7.20;99.90
33955;DHT22;20233;50.804;7.126;2022-11-30T17:43:20;7.20;99.90
33955;DHT22;20233;50.804;7.126;2022-11-30T17:45:45;7.20;99.90
33955;DHT22;20233;50.804;7.126;2022-11-30T17:48:11;7.10;99.90